Time;durP1;ratioP1;P1;durP2;ratioP2;P2;SDS_P1;SDS_P2;PMS_P1;PMS_P2;Temp;Humidity;BMP_temperature;BMP_pressure;BME280_temperature;BME280_humidity;BME280_pressure;Samples;Min_cycle;Max_cycle;Signal;HPM_P1;HPM_P2
2023/03/15 00:04:50;;;;;;;7.60;3.30;;;21.70;60.90;;;;;;222306;1257;22634;-54
2023/03/15 00:09:54;;;;;;;5.40;2.60;;;21.70;61.40;;;;;;222250;1262;22626;-54
2023/03/15 00:15:00;;;;;;;7.00;3.20;;;21.60;60.70;;;;;;222164;1262;22631;-56
2023/03/15 00:20:05;;;;;;;6.90;2.60;;;21.60;60.50;;;;;;222338;1264;23142;-55
2023/03/15 00:25:09;;;;;;;5.50;2.90;;;21.50;61.10;;;;;;221875;1264;22594;-55
2023/03/15 00:30:14;;;;;;;4.50;2.70;;;21.60;62.20;;;;;;222433;1256;22508;-54
2023/03/15 00:35:18;;;;;;;5.20;2.40;;;21.70;61.80;;;;;;222426;1269;22556;-55
2023/03/15 00:40:23;;;;;;;7.80;2.60;;;21.80;61.80;;;;;;222222;1266;24233;-54
2023/03/15 00:45:27;;;;;;;6.00;3.00;;;21.90;61.50;;;;;;222311;1269;23145;-56
2023/03/15 00:50:31;;;;;;;7.70;2.50;;;22.00;61.60;;;;;;222354;1264;22888;-57
2023/03/15 00:55:36;;;;;;;4.50;2.70;;;22.10;61.60;;;;;;222154;1263;23909;-52
2023/03/15 01:00:40;;;;;;;5.60;2.20;;;22.20;60.50;;;;;;222220;1263;25275;-55
2023/03/15 01:05:45;;;;;;;5.50;2.50;;;22.20;60.40;;;;;;222269;1264;24228;-58
2023/03/15 01:10:49;;;;;;;4.90;2.40;;;22.30;60.20;;;;;;222125;1266;25395;-56
2023/03/15 01:15:53;;;;;;;3.10;2.40;;;22.30;60.00;;;;;;222002;1260;25249;-54
2023/03/15 01:20:58;;;;;;;4.30;2.00;;;22.40;59.70;;;;;;222019;1264;22983;-45
2023/03/15 01:26:05;;;;;;;5.00;2.00;;;22.30;60.10;;;;;;227382;1264;24347;-46
2023/03/15 01:31:29;;;;;;;4.20;2.50;;;22.30;59.40;;;;;;224152;1270;23945;-46
2023/03/15 01:36:33;;;;;;;4.40;2.20;;;22.40;59.10;;;;;;226940;1267;22742;-49
2023/03/15 01:41:38;;;;;;;3.80;2.00;;;22.40;59.00;;;;;;221925;1269;26532;-48
2023/03/15 01:46:42;;;;;;;4.00;2.40;;;22.30;58.90;;;;;;222065;1264;22548;-46
2023/03/15 01:52:05;;;;;;;2.50;2.00;;;22.30;59.00;;;;;;221883;1268;25334;-48
2023/03/15 01:57:40;;;;;;;4.10;1.70;;;22.30;58.90;;;;;;222150;1267;23004;-47
2023/03/15 02:02:50;;;;;;;3.50;2.30;;;22.40;58.40;;;;;;221713;1263;22757;-45
2023/03/15 02:07:59;;;;;;;2.00;1.80;;;22.30;58.40;;;;;;221721;1265;24237;-45
2023/03/15 02:13:07;;;;;;;2.60;1.90;;;22.30;58.30;;;;;;222041;1263;22521;-48
2023/03/15 02:18:12;;;;;;;3.50;1.70;;;22.30;58.30;;;;;;221689;1270;373725;-44
2023/03/15 02:23:19;;;;;;;3.70;2.30;;;22.30;58.60;;;;;;221834;1258;25376;-49
2023/03/15 02:28:24;;;;;;;4.20;2.00;;;22.40;58.60;;;;;;221783;1266;25376;-46
2023/03/15 02:33:31;;;;;;;2.50;1.70;;;22.40;58.40;;;;;;222017;1258;24295;-45
2023/03/15 02:38:36;;;;;;;2.30;1.80;;;22.50;58.40;;;;;;222172;1257;22507;-45
2023/03/15 02:43:40;;;;;;;1.90;1.40;;;22.60;57.90;;;;;;222141;1270;24193;-46
2023/03/15 02:48:46;;;;;;;5.00;2.20;;;22.60;57.10;;;;;;221961;1264;24040;-45
2023/03/15 02:53:51;;;;;;;2.30;1.80;;;22.70;57.00;;;;;;222126;1257;22522;-45
2023/03/15 02:58:56;;;;;;;2.80;1.60;;;22.70;56.70;;;;;;222151;1270;25438;-43
2023/03/15 03:04:01;;;;;;;4.10;1.70;;;22.50;57.30;;;;;;222120;1256;22519;-46
2023/03/15 03:09:05;;;;;;;2.40;1.50;;;22.50;57.40;;;;;;222063;1268;25313;-44
2023/03/15 03:14:12;;;;;;;2.10;1.60;;;22.50;57.50;;;;;;222159;1267;25387;-46
2023/03/15 03:19:17;;;;;;;2.60;1.60;;;22.60;57.10;;;;;;221962;1267;25397;-44
2023/03/15 03:24:24;;;;;;;2.30;1.60;;;22.70;56.60;;;;;;222048;1264;23946;-48
2023/03/15 03:29:30;;;;;;;2.80;1.80;;;22.70;56.60;;;;;;221952;1257;22543;-45
2023/03/15 03:34:35;;;;;;;3.20;1.40;;;22.70;56.60;;;;;;221929;1264;24020;-44
2023/03/15 03:39:40;;;;;;;1.80;1.30;;;22.60;56.60;;;;;;221656;1270;22658;-44
2023/03/15 03:44:45;;;;;;;3.60;1.30;;;22.50;56.90;;;;;;221603;1255;24188;-46
2023/03/15 03:49:49;;;;;;;1.20;1.10;;;22.50;57.00;;;;;;221543;1256;25450;-46
2023/03/15 03:54:53;;;;;;;1.60;1.40;;;22.50;57.20;;;;;;221848;1264;22519;-47
2023/03/15 03:59:58;;;;;;;2.00;1.40;;;22.50;57.10;;;;;;222056;1264;25344;-46
2023/03/15 04:05:03;;;;;;;2.70;1.60;;;22.50;57.30;;;;;;222060;1264;22588;-48
2023/03/15 04:10:08;;;;;;;3.50;1.70;;;22.50;57.10;;;;;;222196;1257;22630;-47
2023/03/15 04:15:12;;;;;;;1.50;1.10;;;22.70;56.60;;;;;;222457;1267;22591;-45
2023/03/15 04:20:19;;;;;;;2.00;1.40;;;22.80;56.40;;;;;;222377;1260;22522;-45
2023/03/15 04:25:25;;;;;;;3.40;1.30;;;22.70;56.60;;;;;;222022;1253;24340;-44
2023/03/15 04:30:50;;;;;;;2.00;1.00;;;22.70;56.20;;;;;;221850;1264;22518;-47
2023/03/15 04:36:30;;;;;;;1.50;1.20;;;22.80;56.10;;;;;;221995;1263;22522;-45
2023/03/15 04:42:08;;;;;;;3.00;1.30;;;22.80;56.00;;;;;;222317;1263;24263;-46
2023/03/15 04:47:31;;;;;;;1.90;1.50;;;22.70;56.00;;;;;;222345;1264;22527;-48
2023/03/15 04:52:58;;;;;;;2.10;1.10;;;22.60;56.00;;;;;;221981;1263;22531;-46
2023/03/15 04:58:21;;;;;;;1.20;1.10;;;22.90;55.70;;;;;;222285;1263;22613;-46
2023/03/15 05:03:34;;;;;;;1.60;1.10;;;22.90;55.60;;;;;;222111;1270;22510;-45
2023/03/15 05:08:57;;;;;;;2.00;1.60;;;22.80;55.70;;;;;;222179;1264;22510;-45
2023/03/15 05:14:20;;;;;;;2.10;1.30;;;22.70;55.90;;;;;;222390;1263;22525;-45
2023/03/15 05:19:48;;;;;;;2.30;1.20;;;22.70;56.00;;;;;;222082;1257;22511;-47
2023/03/15 05:25:15;;;;;;;2.10;1.20;;;22.60;55.90;;;;;;222267;1256;22673;-46
2023/03/15 05:30:35;;;;;;;2.20;1.30;;;22.70;56.00;;;;;;222164;1257;23886;-45
2023/03/15 05:35:54;;;;;;;2.00;1.20;;;22.60;55.90;;;;;;222313;1270;22832;-46
2023/03/15 05:41:17;;;;;;;1.70;1.00;;;22.70;56.00;;;;;;222225;1263;24209;-47
2023/03/15 05:46:42;;;;;;;1.60;1.20;;;22.70;56.30;;;;;;222401;1256;22724;-46
2023/03/15 05:52:03;;;;;;;1.60;1.20;;;22.70;56.10;;;;;;222331;1255;22630;-44
2023/03/15 05:57:23;;;;;;;1.30;0.90;;;22.80;55.70;;;;;;220810;1262;22518;-44
2023/03/15 06:02:56;;;;;;;1.90;0.80;;;22.80;55.50;;;;;;220839;1262;22512;-44
2023/03/15 06:08:10;;;;;;;1.40;0.80;;;22.90;55.30;;;;;;220955;1262;22529;-46
2023/03/15 06:13:17;;;;;;;1.50;1.10;;;22.90;55.20;;;;;;221340;1257;22521;-46
2023/03/15 06:18:21;;;;;;;1.20;0.90;;;23.00;55.40;;;;;;222168;1267;23882;-47
2023/03/15 06:23:25;;;;;;;1.70;1.10;;;22.80;55.60;;;;;;222067;1256;25392;-46
2023/03/15 06:28:30;;;;;;;2.00;1.30;;;22.80;55.40;;;;;;222182;1256;22511;-44
2023/03/15 06:33:36;;;;;;;1.20;1.00;;;22.90;55.70;;;;;;222165;1255;25210;-44
2023/03/15 06:38:42;;;;;;;1.90;1.10;;;22.80;55.30;;;;;;222136;1259;22569;-49
2023/03/15 06:43:46;;;;;;;1.10;0.90;;;22.90;55.30;;;;;;222091;1264;24268;-47
2023/03/15 06:48:50;;;;;;;2.00;1.30;;;22.90;55.20;;;;;;222138;1265;22539;-48
2023/03/15 06:53:56;;;;;;;1.60;0.90;;;22.80;55.30;;;;;;222262;1270;22852;-40
2023/03/15 06:59:00;;;;;;;2.50;1.20;;;22.80;55.50;;;;;;222210;1249;22516;-39
2023/03/15 07:04:05;;;;;;;4.90;1.30;;;22.70;56.90;;;;;;221914;1270;22636;-39
2023/03/15 07:09:11;;;;;;;8.40;1.10;;;22.70;56.30;;;;;;222310;1263;22626;-40
2023/03/15 07:14:14;;;;;;;2.60;0.90;;;22.90;56.40;;;;;;222107;1263;25445;-39
2023/03/15 07:19:19;;;;;;;4.20;0.90;;;22.70;56.70;;;;;;222251;1263;23044;-40
2023/03/15 07:24:23;;;;;;;2.40;1.20;;;22.70;57.20;;;;;;222352;1263;22518;-41
2023/03/15 07:29:28;;;;;;;4.50;1.20;;;22.70;57.10;;;;;;222224;1263;25457;-39
2023/03/15 07:34:32;;;;;;;4.90;1.00;;;22.60;57.50;;;;;;222287;1247;22683;-39
2023/03/15 07:39:36;;;;;;;3.80;1.70;;;22.60;57.10;;;;;;222296;1263;22682;-40
2023/03/15 07:44:40;;;;;;;5.20;1.00;;;22.60;57.70;;;;;;222424;1263;24431;-39
2023/03/15 07:49:44;;;;;;;6.90;1.30;;;22.60;57.00;;;;;;222164;1263;23881;-38
2023/03/15 07:54:48;;;;;;;6.60;1.30;;;22.60;57.30;;;;;;222278;1263;25346;-40
2023/03/15 07:59:52;;;;;;;8.00;1.30;;;22.70;57.50;;;;;;222108;1267;24422;-39
2023/03/15 08:04:57;;;;;;;3.90;1.20;;;22.70;57.00;;;;;;222298;1263;23961;-50
2023/03/15 08:10:04;;;;;;;2.30;1.00;;;22.70;57.20;;;;;;222465;1263;23939;-53
2023/03/15 08:15:10;;;;;;;3.60;1.30;;;22.60;57.10;;;;;;222222;1263;22604;-51
2023/03/15 08:20:17;;;;;;;5.00;1.30;;;22.50;57.10;;;;;;222039;1263;24154;-53
2023/03/15 08:25:22;;;;;;;8.80;1.30;;;22.40;57.00;;;;;;222190;1263;22599;-52
2023/03/15 08:30:27;;;;;;;2.30;1.10;;;22.40;57.20;;;;;;221986;1263;24362;-47
2023/03/15 08:35:33;;;;;;;7.60;1.40;;;22.30;57.10;;;;;;222220;1263;22508;-52
2023/03/15 08:40:37;;;;;;;1.90;1.30;;;22.30;57.00;;;;;;221988;1263;22566;-50
2023/03/15 08:45:43;;;;;;;3.10;1.10;;;22.30;57.40;;;;;;221888;1263;22633;-53
2023/03/15 08:51:07;;;;;;;1.90;1.10;;;22.40;57.30;;;;;;221812;1263;24234;-56
2023/03/15 08:56:11;;;;;;;4.10;1.70;;;22.40;56.50;;;;;;222179;1269;22637;-52
2023/03/15 09:01:15;;;;;;;3.70;1.20;;;22.40;56.60;;;;;;222006;1259;22589;-56
2023/03/15 09:06:20;;;;;;;3.60;1.20;;;22.30;56.90;;;;;;222083;1263;22528;-54
2023/03/15 09:11:24;;;;;;;2.70;1.30;;;22.30;57.20;;;;;;221785;1263;25316;-55
2023/03/15 09:16:29;;;;;;;4.00;1.10;;;22.40;56.70;;;;;;221733;1263;23016;-56
2023/03/15 09:21:33;;;;;;;3.20;1.10;;;22.40;56.50;;;;;;221791;1259;24229;-53
2023/03/15 09:26:38;;;;;;;3.10;1.20;;;22.40;56.50;;;;;;221942;1256;23879;-54
2023/03/15 09:31:42;;;;;;;2.20;1.30;;;22.30;56.50;;;;;;222059;1256;25623;-52
2023/03/15 09:36:51;;;;;;;2.90;1.10;;;22.40;56.20;;;;;;221968;1256;22529;-54
2023/03/15 09:41:57;;;;;;;3.90;1.30;;;22.40;56.50;;;;;;222204;1264;25495;-54
2023/03/15 09:47:16;;;;;;;2.00;0.90;;;22.40;55.80;;;;;;221947;1264;22735;-55
2023/03/15 09:52:37;;;;;;;3.50;1.20;;;22.40;55.90;;;;;;222078;1263;24337;-44
2023/03/15 09:57:58;;;;;;;2.70;1.20;;;22.30;55.70;;;;;;221928;1256;24372;-58
2023/03/15 10:03:05;;;;;;;1.50;1.10;;;22.40;55.50;;;;;;221934;1256;22635;-54
2023/03/15 10:08:16;;;;;;;2.90;0.80;;;22.30;55.40;;;;;;221875;1256;24117;-53
2023/03/15 10:13:45;;;;;;;1.60;0.90;;;22.30;55.80;;;;;;222177;1258;22636;-54
2023/03/15 10:19:09;;;;;;;3.30;1.30;;;22.20;55.90;;;;;;222141;1263;24364;-55
2023/03/15 10:24:27;;;;;;;2.20;1.20;;;22.30;55.90;;;;;;222077;1263;22781;-52
2023/03/15 10:29:31;;;;;;;2.20;1.00;;;22.20;55.70;;;;;;222104;1263;25881;-52
2023/03/15 10:34:35;;;;;;;3.50;1.00;;;22.30;55.60;;;;;;222267;1263;22524;-56
2023/03/15 10:39:45;;;;;;;1.50;0.90;;;22.20;55.70;;;;;;222197;1263;24432;-58
2023/03/15 10:44:49;;;;;;;1.80;1.10;;;22.20;55.90;;;;;;222229;1263;22520;-57
2023/03/15 10:49:58;;;;;;;1.50;1.00;;;22.20;55.70;;;;;;222265;1263;24426;-59
2023/03/15 10:55:15;;;;;;;1.80;1.00;;;22.10;55.60;;;;;;222059;1263;22525;-58
2023/03/15 11:00:35;;;;;;;2.00;0.80;;;22.10;56.20;;;;;;222266;1263;22507;-52
2023/03/15 11:05:45;;;;;;;2.20;1.20;;;22.10;55.90;;;;;;222162;1263;25389;-51
2023/03/15 11:10:58;;;;;;;2.00;1.20;;;22.10;55.70;;;;;;222074;1263;25410;-58
2023/03/15 11:16:14;;;;;;;1.10;1.00;;;22.10;55.70;;;;;;222146;1263;25312;-48
2023/03/15 11:21:21;;;;;;;2.60;0.90;;;22.10;55.10;;;;;;222142;1263;24038;-54
2023/03/15 11:26:25;;;;;;;1.20;0.70;;;22.40;54.60;;;;;;222066;1263;23188;-56
2023/03/15 11:31:35;;;;;;;1.80;1.10;;;22.20;55.10;;;;;;222341;1263;22530;-55
2023/03/15 11:36:44;;;;;;;1.90;1.00;;;22.10;55.60;;;;;;222134;1257;24743;-54
2023/03/15 11:41:58;;;;;;;1.70;1.00;;;22.10;55.70;;;;;;222107;1263;22592;-55
2023/03/15 11:47:10;;;;;;;2.70;1.20;;;22.10;55.70;;;;;;222105;1260;25017;-53
2023/03/15 11:52:16;;;;;;;4.80;1.30;;;22.00;55.50;;;;;;222144;1263;22681;-55
2023/03/15 11:57:44;;;;;;;2.20;1.20;;;22.10;55.30;;;;;;222208;1263;22541;-51
2023/03/15 12:02:52;;;;;;;2.10;1.30;;;22.00;56.00;;;;;;222158;1263;22592;-56
2023/03/15 12:07:59;;;;;;;5.00;1.20;;;22.00;56.10;;;;;;222103;1257;23910;-56
2023/03/15 12:13:18;;;;;;;4.00;1.10;;;22.00;55.60;;;;;;222169;1257;22619;-57
2023/03/15 12:18:30;;;;;;;4.80;1.20;;;22.00;55.60;;;;;;222197;1246;24896;-56
2023/03/15 12:23:39;;;;;;;7.00;1.50;;;22.00;55.30;;;;;;222229;1263;25229;-53
2023/03/15 12:29:10;;;;;;;10.50;1.10;;;22.00;55.40;;;;;;222086;1256;23188;-52
2023/03/15 12:34:24;;;;;;;4.90;1.40;;;22.10;55.00;;;;;;222134;1263;25312;-58
2023/03/15 12:39:41;;;;;;;2.50;1.10;;;22.10;55.00;;;;;;222232;1263;22518;-56
2023/03/15 12:44:45;;;;;;;3.10;1.00;;;22.00;55.00;;;;;;222116;1257;26481;-51
2023/03/15 12:49:49;;;;;;;5.00;1.30;;;22.00;55.10;;;;;;222065;1266;25201;-53
2023/03/15 12:54:56;;;;;;;5.10;1.30;;;21.90;55.30;;;;;;222177;1263;24186;-57
2023/03/15 13:00:06;;;;;;;3.80;1.10;;;21.90;55.50;;;;;;222291;1254;22521;-50
2023/03/15 13:05:47;;;;;;;2.80;1.00;;;21.90;55.70;;;;;;222146;1254;23918;-55
2023/03/15 13:11:43;;;;;;;1.70;1.00;;;21.80;55.30;;;;;;222165;1262;22635;-53
2023/03/15 13:17:00;;;;;;;3.30;1.00;;;21.80;55.30;;;;;;222319;1263;25309;-51
2023/03/15 13:22:17;;;;;;;3.70;1.20;;;21.80;55.50;;;;;;222107;1263;25593;-55
2023/03/15 13:27:37;;;;;;;2.20;1.10;;;21.70;55.40;;;;;;222124;1263;23922;-51
2023/03/15 13:32:41;;;;;;;4.30;1.20;;;21.70;55.50;;;;;;222162;1263;25511;-49
2023/03/15 13:37:45;;;;;;;2.60;1.00;;;21.70;55.40;;;;;;222256;1263;22508;-49
2023/03/15 13:42:49;;;;;;;2.40;1.10;;;21.70;55.40;;;;;;222223;1263;24404;-50
2023/03/15 13:47:53;;;;;;;1.30;0.80;;;21.80;55.50;;;;;;222279;1257;24345;-57
2023/03/15 13:52:57;;;;;;;2.40;1.00;;;21.90;55.20;;;;;;222129;1263;25930;-52
2023/03/15 13:58:06;;;;;;;2.40;1.30;;;22.10;54.80;;;;;;222229;1263;25338;-56
2023/03/15 14:03:20;;;;;;;1.80;0.90;;;22.20;54.20;;;;;;222161;1257;24364;-55
2023/03/15 14:08:32;;;;;;;2.30;1.20;;;22.30;53.90;;;;;;222267;1257;22561;-55
2023/03/15 14:13:46;;;;;;;;;;;22.50;54.10;;;;;;222280;1263;24243;-47
2023/03/15 14:18:51;;;;;;;1.30;0.80;;;22.60;53.20;;;;;;222168;1263;172615;-56
2023/03/15 14:23:55;;;;;;;2.00;1.10;;;22.70;52.80;;;;;;222219;1263;22529;-54
2023/03/15 14:29:24;;;;;;;2.40;1.00;;;22.80;52.40;;;;;;222140;1263;24020;-53
2023/03/15 14:34:36;;;;;;;2.10;1.10;;;22.70;52.80;;;;;;222153;1256;22509;-55
2023/03/15 14:39:41;;;;;;;6.70;1.10;;;22.70;53.40;;;;;;221929;1263;24221;-53
2023/03/15 14:44:46;;;;;;;4.00;1.20;;;22.80;52.90;;;;;;222240;1266;24151;-56
2023/03/15 14:49:50;;;;;;;1.60;1.00;;;22.70;53.20;;;;;;222184;1255;23911;-53
2023/03/15 14:54:55;;;;;;;4.70;2.50;;;22.70;53.60;;;;;;222338;1247;22514;-52
2023/03/15 15:00:00;;;;;;;10.90;3.10;;;22.70;54.00;;;;;;222247;1260;24237;-50
2023/03/15 15:05:22;;;;;;;4.40;2.30;;;22.70;54.30;;;;;;222188;1263;22623;-53
2023/03/15 15:10:26;;;;;;;4.70;2.30;;;22.70;54.10;;;;;;222259;1263;26480;-48
2023/03/15 15:15:31;;;;;;;5.80;2.00;;;22.70;53.60;;;;;;222095;1263;23911;-46
2023/03/15 15:20:53;;;;;;;3.50;1.50;;;22.80;53.50;;;;;;222102;1257;23647;-56
2023/03/15 15:26:04;;;;;;;4.20;1.80;;;22.70;53.30;;;;;;221888;1263;22524;-53
2023/03/15 15:31:13;;;;;;;3.90;1.80;;;22.60;53.40;;;;;;222220;1259;25312;-55
2023/03/15 15:36:23;;;;;;;3.90;1.90;;;22.70;53.60;;;;;;222102;1264;23262;-57
2023/03/15 15:41:30;;;;;;;4.60;1.70;;;22.70;53.40;;;;;;222173;1263;22515;-54
2023/03/15 15:46:34;;;;;;;3.20;1.30;;;22.70;53.10;;;;;;222187;1263;22515;-49
2023/03/15 15:51:44;;;;;;;4.20;2.10;;;22.90;53.20;;;;;;222244;1264;22633;-47
2023/03/15 15:56:55;;;;;;;3.80;1.80;;;22.80;52.70;;;;;;222022;1259;22629;-46
2023/03/15 16:01:59;;;;;;;3.80;1.70;;;22.90;52.70;;;;;;221746;1263;22480;-51
2023/03/15 16:07:07;;;;;;;4.30;2.30;;;22.90;53.10;;;;;;221976;1256;22887;-56
2023/03/15 16:12:16;;;;;;;4.70;1.50;;;22.90;53.00;;;;;;222484;1263;22512;-51
2023/03/15 16:17:24;;;;;;;3.00;1.70;;;23.00;53.20;;;;;;222038;1263;25245;-56
2023/03/15 16:22:31;;;;;;;2.60;1.70;;;22.90;53.50;;;;;;222113;1267;24052;-52
2023/03/15 16:27:37;;;;;;;4.20;1.70;;;22.90;53.70;;;;;;222143;1263;24063;-55
2023/03/15 16:32:45;;;;;;;4.90;1.80;;;22.90;54.30;;;;;;222071;1263;24189;-56
2023/03/15 16:37:55;;;;;;;4.30;1.50;;;22.80;54.90;;;;;;222230;1270;22560;-50
2023/03/15 16:43:05;;;;;;;7.80;1.80;;;22.90;54.20;;;;;;221863;1263;23927;-51
2023/03/15 16:48:13;;;;;;;6.20;1.70;;;23.00;54.00;;;;;;221737;1263;24193;-52
2023/03/15 16:53:18;;;;;;;5.40;1.60;;;22.90;53.90;;;;;;221822;1263;22516;-51
2023/03/15 16:58:26;;;;;;;5.70;2.10;;;22.90;53.90;;;;;;221952;1263;23585;-54
2023/03/15 17:03:34;;;;;;;3.30;1.30;;;22.80;54.10;;;;;;222078;1264;25337;-47
2023/03/15 17:08:39;;;;;;;7.20;1.80;;;22.80;54.10;;;;;;222201;1263;22514;-44
2023/03/15 17:13:45;;;;;;;6.60;1.60;;;22.80;55.10;;;;;;224541;1271;22951;-46
2023/03/15 17:18:52;;;;;;;2.90;1.50;;;22.80;54.80;;;;;;221314;1259;23893;-47
2023/03/15 17:24:01;;;;;;;2.80;1.30;;;22.80;55.80;;;;;;221306;1269;25973;-51
2023/03/15 17:29:08;;;;;;;3.20;1.70;;;22.80;55.80;;;;;;221331;1266;22505;-48
2023/03/15 17:34:14;;;;;;;7.70;1.50;;;23.00;55.40;;;;;;221266;1266;25218;-48
2023/03/15 17:39:20;;;;;;;12.50;1.70;;;22.80;55.70;;;;;;221365;1261;22573;-50
2023/03/15 17:44:27;;;;;;;4.00;1.40;;;22.80;56.00;;;;;;221333;1253;24205;-48
2023/03/15 17:49:34;;;;;;;9.00;1.50;;;22.80;55.40;;;;;;221593;1264;23921;-48
2023/03/15 17:54:42;;;;;;;3.30;1.50;;;22.80;55.30;;;;;;222064;1263;24360;-38
2023/03/15 17:59:48;;;;;;;6.20;1.80;;;22.90;55.30;;;;;;222480;1246;25528;-39
2023/03/15 18:04:58;;;;;;;6.70;1.80;;;22.80;56.00;;;;;;222470;1269;24233;-40
2023/03/15 18:10:05;;;;;;;8.10;1.70;;;22.70;56.00;;;;;;222012;1264;22631;-39
2023/03/15 18:15:16;;;;;;;5.20;1.60;;;22.80;56.20;;;;;;222189;1263;22515;-39
2023/03/15 18:20:23;;;;;;;10.50;2.40;;;22.80;55.60;;;;;;222039;1258;22525;-38
2023/03/15 18:25:36;;;;;;;16.70;4.00;;;22.70;55.50;;;;;;222282;1263;22575;-39
2023/03/15 18:30:43;;;;;;;12.20;2.00;;;22.60;56.00;;;;;;222216;1263;23886;-39
2023/03/15 18:35:52;;;;;;;4.20;1.80;;;22.50;55.50;;;;;;222304;1263;24183;-37
2023/03/15 18:40:59;;;;;;;8.10;1.60;;;22.40;55.30;;;;;;222146;1263;22518;-40
2023/03/15 18:46:09;;;;;;;7.60;1.80;;;22.40;56.10;;;;;;222538;1257;25354;-40
2023/03/15 18:51:17;;;;;;;6.60;2.00;;;22.30;55.50;;;;;;221918;1269;24185;-39
2023/03/15 18:56:33;;;;;;;17.10;6.00;;;22.30;55.40;;;;;;221974;1266;23016;-39
2023/03/15 19:01:41;;;;;;;45.20;15.90;;;22.30;55.40;;;;;;222355;1263;22635;-39
2023/03/15 19:06:46;;;;;;;66.80;28.50;;;22.20;55.40;;;;;;222121;1270;22590;-40
2023/03/15 19:11:54;;;;;;;71.90;26.90;;;22.10;55.40;;;;;;222362;1269;25268;-38
2023/03/15 19:17:03;;;;;;;91.40;35.10;;;22.00;55.40;;;;;;222417;1266;22596;-38
2023/03/15 19:22:09;;;;;;;90.70;37.40;;;22.00;54.50;;;;;;222296;1269;22529;-43
2023/03/15 19:27:17;;;;;;;117.90;46.50;;;21.90;55.50;;;;;;222320;1264;25269;-38
2023/03/15 19:32:27;;;;;;;115.90;46.50;;;21.90;55.30;;;;;;221971;1263;22757;-38
2023/03/15 19:37:34;;;;;;;114.00;44.50;;;21.80;56.00;;;;;;222081;1270;22595;-43
2023/03/15 19:42:43;;;;;;;110.50;43.40;;;21.80;56.00;;;;;;222175;1270;22517;-39
2023/03/15 19:47:55;;;;;;;111.60;42.00;;;21.80;56.10;;;;;;222275;1263;22684;-40
2023/03/15 19:53:04;;;;;;;97.30;38.20;;;21.80;55.60;;;;;;221850;1263;22713;-38
2023/03/15 19:58:10;;;;;;;92.10;37.20;;;21.80;55.30;;;;;;222155;1267;22551;-38
2023/03/15 20:03:20;;;;;;;87.70;36.20;;;21.80;55.00;;;;;;222241;1256;22586;-39
2023/03/15 20:08:28;;;;;;;89.70;34.90;;;21.70;54.40;;;;;;222118;1259;24370;-40
2023/03/15 20:13:36;;;;;;;71.60;32.00;;;21.70;54.40;;;;;;222362;1263;25383;-40
2023/03/15 20:18:44;;;;;;;78.00;32.10;;;21.70;54.40;;;;;;222285;1253;24297;-40
2023/03/15 20:23:50;;;;;;;71.00;32.40;;;21.60;54.80;;;;;;222176;1264;25391;-40
2023/03/15 20:28:57;;;;;;;72.70;33.10;;;21.70;55.30;;;;;;222218;1270;22518;-40
2023/03/15 20:34:15;;;;;;;69.80;31.60;;;21.60;55.80;;;;;;222104;1263;22777;-40
2023/03/15 20:39:24;;;;;;;77.60;31.70;;;21.60;55.70;;;;;;222308;1269;23463;-38
2023/03/15 20:44:32;;;;;;;64.20;30.70;;;21.60;55.70;;;;;;222249;1263;24084;-40
2023/03/15 20:49:39;;;;;;;61.70;28.60;;;21.50;55.70;;;;;;222126;1268;24254;-40
2023/03/15 20:54:45;;;;;;;58.20;27.90;;;21.50;55.60;;;;;;222251;1269;25217;-38
2023/03/15 20:59:52;;;;;;;63.20;27.70;;;21.50;55.80;;;;;;222269;1263;25278;-39
2023/03/15 21:04:59;;;;;;;61.70;25.80;;;21.60;55.60;;;;;;222348;1268;22508;-41
2023/03/15 21:10:07;;;;;;;53.30;24.00;;;21.50;55.90;;;;;;222336;1270;22724;-39
2023/03/15 21:15:17;;;;;;;56.70;24.10;;;21.50;55.70;;;;;;222286;1263;22512;-39
2023/03/15 21:20:23;;;;;;;51.90;24.50;;;21.30;56.40;;;;;;222309;1264;22661;-44
2023/03/15 21:25:29;;;;;;;50.40;23.50;;;21.50;56.30;;;;;;222251;1264;24259;-42
2023/03/15 21:30:34;;;;;;;46.10;23.40;;;21.90;54.90;;;;;;222138;1266;24546;-41
2023/03/15 21:35:40;;;;;;;55.20;23.10;;;22.30;54.10;;;;;;221940;1251;24187;-41
2023/03/15 21:40:55;;;;;;;41.50;20.20;;;22.60;53.30;;;;;;222021;1264;23894;-40
2023/03/15 21:46:08;;;;;;;40.20;20.40;;;22.60;53.20;;;;;;221006;1268;24218;-42
2023/03/15 21:51:16;;;;;;;42.40;20.80;;;22.50;53.30;;;;;;221122;1264;22527;-42
2023/03/15 21:56:24;;;;;;;38.60;19.10;;;22.80;52.80;;;;;;221205;1262;22597;-41
2023/03/15 22:01:29;;;;;;;38.20;19.00;;;22.90;52.00;;;;;;221227;1272;24187;-42
2023/03/15 22:06:33;;;;;;;39.40;19.50;;;23.00;52.10;;;;;;221818;1258;24196;-41
2023/03/15 22:11:37;;;;;;;41.50;19.10;;;23.10;52.00;;;;;;222347;1264;22533;-41
2023/03/15 22:16:41;;;;;;;35.10;17.30;;;23.30;54.10;;;;;;222195;1263;22665;-39
2023/03/15 22:21:46;;;;;;;36.50;18.60;;;23.30;54.00;;;;;;222707;1256;23889;-39
2023/03/15 22:26:51;;;;;;;31.60;15.80;;;23.30;54.00;;;;;;222050;1263;23066;-40
2023/03/15 22:31:55;;;;;;;32.70;17.30;;;23.30;54.30;;;;;;222109;1257;22630;-41
2023/03/15 22:37:03;;;;;;;39.80;16.00;;;23.20;54.20;;;;;;222272;1257;22789;-40
2023/03/15 22:42:08;;;;;;;29.80;14.50;;;23.10;54.20;;;;;;222262;1263;22954;-40
2023/03/15 22:47:11;;;;;;;33.40;14.50;;;23.10;54.40;;;;;;222294;1263;22521;-41
2023/03/15 22:52:16;;;;;;;32.30;15.40;;;23.00;55.00;;;;;;222340;1263;22672;-41
2023/03/15 22:57:21;;;;;;;29.70;15.50;;;22.90;54.60;;;;;;222225;1256;22980;-39
2023/03/15 23:02:25;;;;;;;29.80;13.90;;;22.80;55.00;;;;;;222253;1257;22509;-38
2023/03/15 23:07:29;;;;;;;28.60;14.70;;;22.70;55.40;;;;;;222183;1256;22716;-40
2023/03/15 23:12:33;;;;;;;23.70;13.50;;;22.60;55.70;;;;;;222151;1257;24313;-39
2023/03/15 23:17:45;;;;;;;26.50;14.50;;;22.60;55.70;;;;;;222092;1263;25403;-39
2023/03/15 23:22:49;;;;;;;28.90;15.30;;;22.50;56.10;;;;;;222357;1263;22775;-39
2023/03/15 23:27:54;;;;;;;21.60;12.50;;;22.50;56.50;;;;;;222087;1264;24379;-40
2023/03/15 23:32:58;;;;;;;24.90;13.40;;;22.50;56.50;;;;;;222082;1256;25392;-42
2023/03/15 23:38:03;;;;;;;23.80;13.30;;;22.40;56.90;;;;;;222223;1263;22514;-39
2023/03/15 23:43:08;;;;;;;24.20;13.20;;;22.30;57.10;;;;;;222143;1263;22996;-40
2023/03/15 23:48:12;;;;;;;23.70;13.10;;;22.20;57.40;;;;;;222117;1256;22632;-39
2023/03/15 23:53:16;;;;;;;30.50;12.60;;;22.10;57.60;;;;;;222235;1263;22686;-39
2023/03/15 23:58:20;;;;;;;20.90;12.80;;;22.10;57.60;;;;;;222354;1254;23010;-54
